This is the latest recevied weather packets stored in our database for station/object WD7OO. If no packets are shown the sender has not sent any weather packets the latest 10 day(s).
| Time | Temp. | Humidity | Pressure | Rain* | Wind** | Luminosity | Snow |
|---|---|---|---|---|---|---|---|
| 1777680518 | 6.11° C | 60% | 1017.9 hPa | 0 mm | - | 19 W/m² | - |
| 1777680216 | 6.11° C | 59% | 1017.7 hPa | 0 mm | - | 23 W/m² | - |
| 1777679912 | 6.67° C | 59% | 1017.7 hPa | 0 mm | - | 26 W/m² | - |
| 1777679608 | 6.67° C | 58% | 1017.7 hPa | 0 mm | - | 29 W/m² | - |
| 1777679303 | 7.22° C | 58% | 1017.7 hPa | 0 mm | - | 34 W/m² | - |
| 1777679001 | 7.22° C | 60% | 1017.5 hPa | 0 mm | - | 38 W/m² | - |
| 1777678699 | 7.78° C | 58% | 1017.5 hPa | 0 mm | - | 44 W/m² | - |
| 1777678396 | 7.78° C | 58% | 1017.5 hPa | 0 mm | - | 54 W/m² | - |
| 1777678092 | 7.78° C | 56% | 1017.4 hPa | 0 mm | - | 70 W/m² | - |
| 1777677789 | 8.33° C | 55% | 1017.5 hPa | 0 mm | - | 89 W/m² | - |
| 1777677487 | 7.78° C | 58% | 1017.4 hPa | 0 mm | - | 110 W/m² | - |
| 1777677184 | 7.78° C | 57% | 1017.7 hPa | 0 mm | - | 78 W/m² | - |
| 1777676883 | 7.78° C | 56% | 1017.6 hPa | 0 mm | - | 92 W/m² | - |
| 1777676581 | 7.22° C | 58% | 1017.5 hPa | 0 mm | - | 98 W/m² | - |
| 1777676278 | 7.78° C | 59% | 1017.5 hPa | 0 mm | - | 51 W/m² | - |
| 1777675976 | 7.78° C | 55% | 1017.3 hPa | 0 mm | - | 80 W/m² | - |
| 1777675672 | 8.33° C | 56% | 1017.4 hPa | 0 mm | - | 99 W/m² | - |
| 1777675369 | 8.33° C | 55% | 1017.4 hPa | 0 mm | - | 91 W/m² | - |
| 1777675065 | 8.89° C | 54% | 1017.4 hPa | 0 mm | - | 115 W/m² | - |
| 1777674762 | 8.89° C | 55% | 1017.6 hPa | 0 mm | - | 104 W/m² | - |
| 1777674458 | 8.89° C | 54% | 1017.3 hPa | 0 mm | - | 179 W/m² | - |
| 1777674156 | 9.44° C | 54% | 1017.4 hPa | 0 mm | - | 235 W/m² | - |
| 1777673852 | 8.89° C | 55% | 1017.3 hPa | 0 mm | - | 262 W/m² | - |
| 1777673549 | 8.89° C | 57% | 1017 hPa | 0 mm | - | 305 W/m² | - |
| 1777673247 | 8.33° C | 59% | 1017.3 hPa | 0 mm | - | 162 W/m² | - |
* Rain latest hour (hover to see other rain measurements)
** Current wind speed in m/s (hover to see current wind gust speed)